createdAt,value
2022-10-28T00:04:17.760Z,3.60
2022-10-28T00:09:22.258Z,3.57
2022-10-28T00:14:25.395Z,3.73
2022-10-28T00:19:28.527Z,3.70
2022-10-28T00:24:33.115Z,3.40
2022-10-28T00:29:36.301Z,3.80
2022-10-28T00:34:39.407Z,3.03
2022-10-28T00:39:43.907Z,3.33
2022-10-28T00:45:00.739Z,3.07
2022-10-28T00:50:13.408Z,3.33
2022-10-28T00:55:20.480Z,3.10
2022-10-28T01:00:24.433Z,3.57
2022-10-28T01:05:30.763Z,3.17
2022-10-28T01:11:03.556Z,2.97
2022-10-28T01:16:11.573Z,3.90
2022-10-28T01:21:48.234Z,3.53
2022-10-28T01:27:23.062Z,3.17
2022-10-28T01:32:34.045Z,3.07
2022-10-28T01:37:41.735Z,3.07
2022-10-28T01:42:52.794Z,2.80
2022-10-28T01:48:01.729Z,2.50
2022-10-28T01:53:13.106Z,2.70
2022-10-28T01:58:20.080Z,3.27
2022-10-28T02:03:24.608Z,3.17
2022-10-28T02:08:45.030Z,2.60
2022-10-28T02:13:57.458Z,2.67
2022-10-28T02:19:12.666Z,2.63
2022-10-28T02:24:21.515Z,3.00
2022-10-28T02:29:34.485Z,3.17
2022-10-28T02:34:43.524Z,2.73
2022-10-28T02:39:50.230Z,2.50
2022-10-28T02:44:57.185Z,2.87
2022-10-28T02:50:05.892Z,2.93
2022-10-28T02:55:09.544Z,2.90
2022-10-28T03:00:16.349Z,3.00
2022-10-28T03:05:20.978Z,2.70
2022-10-28T03:10:24.082Z,3.00
2022-10-28T03:15:27.296Z,2.70
2022-10-28T03:20:31.718Z,2.87
2022-10-28T03:25:34.820Z,2.73
2022-10-28T03:30:37.900Z,2.90
2022-10-28T03:35:42.406Z,2.80
2022-10-28T03:40:48.269Z,2.67
2022-10-28T03:45:51.545Z,2.90
2022-10-28T03:50:56.106Z,2.87
2022-10-28T03:56:01.041Z,2.60
2022-10-28T04:01:04.215Z,2.83
2022-10-28T04:06:10.014Z,2.47
2022-10-28T04:11:13.057Z,2.90
2022-10-28T04:16:16.236Z,2.40
2022-10-28T04:21:20.743Z,2.50
2022-10-28T04:26:23.835Z,2.13
2022-10-28T04:31:26.904Z,2.40
2022-10-28T04:36:31.309Z,2.73
2022-10-28T04:41:34.910Z,2.97
2022-10-28T04:46:38.149Z,2.60
2022-10-28T04:51:42.766Z,2.30
2022-10-28T04:56:45.919Z,2.60
2022-10-28T05:01:49.039Z,2.60
2022-10-28T05:06:53.541Z,3.10
2022-10-28T05:11:56.676Z,2.90
2022-10-28T05:16:59.760Z,3.20
2022-10-28T05:22:04.442Z,3.20
2022-10-28T05:27:07.685Z,2.50
2022-10-28T05:32:10.830Z,3.17
2022-10-28T05:37:15.334Z,2.33
2022-10-28T05:42:18.496Z,2.60
2022-10-28T05:47:21.612Z,3.20
2022-10-28T05:52:26.489Z,2.67
2022-10-28T05:57:29.660Z,3.10
2022-10-28T06:02:32.761Z,2.70
2022-10-28T06:07:37.791Z,3.17
2022-10-28T06:12:39.356Z,2.70
2022-10-28T06:17:42.492Z,2.93
2022-10-28T06:22:51.449Z,2.63
2022-10-28T06:27:55.913Z,3.20
2022-10-28T06:32:59.139Z,3.20
2022-10-28T06:38:07.228Z,3.00
2022-10-28T06:43:13.027Z,2.93
2022-10-28T06:48:17.611Z,3.40
2022-10-28T06:53:24.972Z,3.30
2022-10-28T06:58:28.592Z,3.33
2022-10-28T07:03:32.954Z,4.53
2022-10-28T07:08:37.495Z,4.80
2022-10-28T07:13:41.728Z,3.50
2022-10-28T07:18:46.418Z,3.20
2022-10-28T07:23:51.068Z,3.37
2022-10-28T07:28:54.175Z,3.67
2022-10-28T07:33:57.237Z,3.27
2022-10-28T07:39:01.774Z,3.17
2022-10-28T07:44:05.259Z,3.10
2022-10-28T07:49:08.438Z,3.30
2022-10-28T07:54:13.056Z,3.30
2022-10-28T07:59:16.552Z,3.10
2022-10-28T08:04:19.691Z,3.30
2022-10-28T08:09:24.627Z,3.27
2022-10-28T08:14:27.849Z,2.97
2022-10-28T08:19:31.004Z,3.10
2022-10-28T08:24:36.697Z,2.80
2022-10-28T08:29:39.947Z,3.23
2022-10-28T08:34:43.776Z,2.50
2022-10-28T08:39:48.518Z,2.57
2022-10-28T08:45:04.202Z,2.80
2022-10-28T08:50:14.489Z,3.07
2022-10-28T08:55:24.288Z,3.20
2022-10-28T09:00:30.088Z,4.60
2022-10-28T09:05:33.295Z,3.20
2022-10-28T09:10:57.889Z,3.53
2022-10-28T09:16:09.395Z,3.13
2022-10-28T09:21:22.313Z,2.93
2022-10-28T09:26:42.404Z,3.27
2022-10-28T09:31:48.994Z,2.90
2022-10-28T09:36:57.073Z,2.70
2022-10-28T09:42:03.934Z,2.30
2022-10-28T09:47:16.283Z,2.47
2022-10-28T09:52:24.072Z,2.60
2022-10-28T09:57:31.797Z,2.60
2022-10-28T10:02:36.142Z,2.67
2022-10-28T10:07:44.492Z,2.03
2022-10-28T10:12:52.404Z,2.53
2022-10-28T10:17:59.108Z,2.23
2022-10-28T10:23:02.264Z,2.00
2022-10-28T10:28:16.823Z,2.10
2022-10-28T10:33:23.201Z,1.80
2022-10-28T10:38:27.763Z,2.00
2022-10-28T10:43:37.282Z,1.97
2022-10-28T10:48:40.680Z,2.00
2022-10-28T10:53:49.979Z,2.00
2022-10-28T10:58:57.040Z,2.20
2022-10-28T11:04:02.293Z,2.10
2022-10-28T11:09:07.833Z,2.00
2022-10-28T11:14:24.377Z,1.80
2022-10-28T11:19:30.782Z,2.00
2022-10-28T11:24:48.875Z,1.70
2022-10-28T11:29:53.533Z,1.57
2022-10-28T11:35:14.966Z,1.50
2022-10-28T11:40:32.308Z,1.60
2022-10-28T11:45:45.889Z,1.50
2022-10-28T11:51:10.242Z,1.67
2022-10-28T11:56:24.140Z,1.63
2022-10-28T12:01:41.399Z,1.27
2022-10-28T12:07:27.250Z,1.33
2022-10-28T12:12:41.152Z,1.40
2022-10-28T12:17:52.339Z,1.40
2022-10-28T12:22:59.060Z,1.47
2022-10-28T12:28:05.773Z,1.40
2022-10-28T12:33:15.967Z,1.30
2022-10-28T12:38:27.867Z,1.20
2022-10-28T12:43:36.426Z,1.30
2022-10-28T12:48:48.044Z,1.50
2022-10-28T12:53:59.539Z,1.60
2022-10-28T12:59:07.708Z,1.53
2022-10-28T13:04:13.727Z,1.50
2022-10-28T13:09:45.674Z,1.60
2022-10-28T13:15:10.043Z,1.57
2022-10-28T13:20:28.958Z,1.50
2022-10-28T13:25:59.616Z,1.57
2022-10-28T13:31:05.608Z,1.60
2022-10-28T13:36:17.524Z,1.60
2022-10-28T13:41:35.604Z,1.60
2022-10-28T13:47:00.744Z,1.63
2022-10-28T13:52:20.962Z,2.00
2022-10-28T13:57:28.694Z,2.00
2022-10-28T14:02:38.355Z,1.83
2022-10-28T14:07:54.558Z,1.67
2022-10-28T14:13:00.914Z,1.50
2022-10-28T14:18:22.767Z,1.80
2022-10-28T14:24:06.910Z,1.73
2022-10-28T14:29:24.669Z,1.47
2022-10-28T14:34:51.367Z,2.57
2022-10-28T14:40:09.472Z,2.03
2022-10-28T14:45:24.343Z,2.20
2022-10-28T14:50:35.507Z,2.47
2022-10-28T14:55:40.598Z,2.80
2022-10-28T15:00:54.757Z,2.80
2022-10-28T15:06:02.353Z,2.40
2022-10-28T15:11:08.291Z,3.77
2022-10-28T15:16:22.332Z,3.33
2022-10-28T15:21:25.503Z,3.27
2022-10-28T15:26:30.097Z,2.47
2022-10-28T15:31:33.180Z,2.80
2022-10-28T15:36:36.399Z,3.67
2022-10-28T15:41:45.612Z,11.80
2022-10-28T15:46:51.085Z,6.10
2022-10-28T15:52:36.211Z,4.90
2022-10-28T15:57:51.028Z,3.23
2022-10-28T16:02:57.115Z,3.07
2022-10-28T16:08:01.843Z,2.90
2022-10-28T16:13:10.607Z,3.10
2022-10-28T16:18:14.832Z,3.10
2022-10-28T16:23:20.001Z,3.20
2022-10-28T16:28:26.868Z,4.10
2022-10-28T16:33:32.888Z,3.80
2022-10-28T16:38:36.211Z,3.67
2022-10-28T16:43:40.642Z,3.20
2022-10-28T16:48:43.788Z,2.67
2022-10-28T16:53:49.652Z,2.90
2022-10-28T16:58:54.722Z,2.70
2022-10-28T17:03:57.781Z,2.60
2022-10-28T17:09:03.602Z,2.53
2022-10-28T17:14:08.791Z,2.70
2022-10-28T17:19:11.873Z,2.60
2022-10-28T17:24:14.987Z,2.80
2022-10-28T17:29:19.649Z,2.63
2022-10-28T17:34:22.834Z,2.90
2022-10-28T17:39:26.591Z,3.27
2022-10-28T17:44:31.185Z,2.90
2022-10-28T17:49:36.441Z,2.57
2022-10-28T17:54:39.591Z,2.50
2022-10-28T17:59:44.337Z,2.60
2022-10-28T18:04:47.416Z,2.47
2022-10-28T18:09:52.840Z,2.83
2022-10-28T18:14:57.621Z,2.83
2022-10-28T18:20:02.104Z,3.10
2022-10-28T18:25:05.845Z,2.50
2022-10-28T18:30:11.433Z,2.50
2022-10-28T18:35:14.620Z,3.13
2022-10-28T18:40:17.867Z,4.30
2022-10-28T18:45:22.362Z,4.67
2022-10-28T18:50:25.762Z,4.23
2022-10-28T18:55:29.056Z,3.57
2022-10-28T19:00:35.019Z,4.40
2022-10-28T19:05:38.132Z,4.47
2022-10-28T19:10:41.612Z,4.93
2022-10-28T19:15:48.880Z,4.27
2022-10-28T19:20:52.248Z,5.53
2022-10-28T19:25:56.732Z,5.63
2022-10-28T19:31:05.678Z,8.30
2022-10-28T19:36:12.885Z,6.77
2022-10-28T19:41:18.411Z,5.63
2022-10-28T19:46:23.383Z,5.57
2022-10-28T19:51:28.895Z,5.33
2022-10-28T19:56:33.790Z,4.97
2022-10-28T20:01:40.359Z,6.03
2022-10-28T20:06:43.577Z,5.73
2022-10-28T20:11:46.780Z,5.20
2022-10-28T20:16:51.318Z,4.90
2022-10-28T20:21:54.896Z,4.30
2022-10-28T20:26:58.219Z,4.30
2022-10-28T20:32:02.805Z,4.17
2022-10-28T20:37:06.005Z,4.03
2022-10-28T20:42:09.248Z,4.93
2022-10-28T20:47:13.696Z,4.03
2022-10-28T20:52:16.854Z,4.53
2022-10-28T20:57:20.026Z,7.40
2022-10-28T21:02:24.620Z,7.00
2022-10-28T21:07:27.978Z,9.57
2022-10-28T21:12:31.136Z,7.80
2022-10-28T21:17:35.750Z,5.77
2022-10-28T21:22:38.909Z,4.50
2022-10-28T21:27:42.108Z,4.60
2022-10-28T21:32:47.945Z,4.07
2022-10-28T21:37:51.342Z,4.10
2022-10-28T21:42:54.419Z,4.30
2022-10-28T21:47:59.228Z,4.40
2022-10-28T21:53:04.341Z,4.07
2022-10-28T21:58:07.566Z,3.60
2022-10-28T22:03:13.167Z,4.00
2022-10-28T22:08:17.427Z,3.93
2022-10-28T22:13:20.508Z,3.80
2022-10-28T22:18:25.055Z,3.90
2022-10-28T22:23:29.875Z,5.10
2022-10-28T22:28:33.101Z,4.53
2022-10-28T22:33:38.306Z,4.33
2022-10-28T22:38:41.929Z,4.10
2022-10-28T22:43:47.182Z,4.80
2022-10-28T22:48:51.669Z,6.60
2022-10-28T22:53:54.811Z,5.27
2022-10-28T22:58:59.254Z,5.10
2022-10-28T23:04:03.725Z,4.97
2022-10-28T23:09:07.002Z,3.87
2022-10-28T23:14:10.077Z,5.07
2022-10-28T23:19:14.511Z,4.50
2022-10-28T23:24:17.745Z,4.07
2022-10-28T23:29:20.876Z,4.40
2022-10-28T23:34:27.213Z,5.20
2022-10-28T23:39:31.263Z,4.63
2022-10-28T23:44:34.348Z,4.40
2022-10-28T23:49:38.820Z,4.03
2022-10-28T23:54:41.916Z,4.30
2022-10-28T23:59:44.966Z,3.50
